Hajira Weather



Hajira's Current Weather

Temprature 25.479o clear sky

clear sky

Rain: 0 %

Min Temprature25.479o
Max Temprature25.479o
Humidity45
Wind Speed1.85 m/h
Sun Rise05:49:21
Sun Set18:08:22
Current Time: 18-Sep-2019 16:58:49
Lat/Lon: 33.77, 73.9




Hajira's Geo Location



Hajira's Weather Forecast

Time Overall Temp Min Temp Max Temp Humidity Wind Speed Rain
18-Sep-2019 (Wed)
17:00:00 clear sky 23.660 23.660 25.479 45 1.85 m/h 0 %
20:00:00 clear sky 17.260 17.260 18.627 56 1.86 m/h 0 %
23:00:00 clear sky 16.330 16.330 17.238 61 2.44 m/h 0 %
19-Sep-2019 (Thu)
02:00:00 clear sky 15.900 15.900 16.350 61 1.98 m/h 0 %
05:00:00 clear sky 15.450 15.450 15.450 58 0.77 m/h 0 %
08:00:00 clear sky 20.404 20.404 20.404 57 0.71 m/h 0 %
11:00:00 clear sky 25.350 25.350 25.350 46 2.08 m/h 0 %
14:00:00 scattered clouds 26.250 26.250 26.250 45 3.19 m/h 0 %
17:00:00 broken clouds 24.950 24.950 24.950 53 1.42 m/h 0 %
20:00:00 scattered clouds 18.850 18.850 18.850 69 1.57 m/h 0 %
23:00:00 few clouds 17.450 17.450 17.450 73 1.85 m/h 0 %
20-Sep-2019 (Fri)
02:00:00 clear sky 16.450 16.450 16.450 72 1.65 m/h 0 %
05:00:00 clear sky 15.650 15.650 15.650 74 0.42 m/h 0 %
08:00:00 few clouds 20.650 20.650 20.650 61 0.78 m/h 0 %
11:00:00 light rain 24.863 24.863 24.863 51 2.29 m/h 25 %
14:00:00 light rain 24.950 24.950 24.950 53 2.32 m/h 125 %
17:00:00 light rain 23.850 23.850 23.850 60 1.45 m/h 13 %
20:00:00 clear sky 18.550 18.550 18.550 78 1.56 m/h 0 %
23:00:00 clear sky 17.250 17.250 17.250 83 1.8 m/h 0 %
21-Sep-2019 (Sat)
02:00:00 clear sky 16.350 16.350 16.350 83 1.65 m/h 0 %
05:00:00 clear sky 15.696 15.696 15.696 81 1.15 m/h 0 %
08:00:00 few clouds 20.650 20.650 20.650 65 1.23 m/h 0 %
11:00:00 light rain 25.263 25.263 25.263 53 2.13 m/h 181 %
14:00:00 light rain 25.150 25.150 25.150 55 2.43 m/h 119 %
17:00:00 light rain 24.250 24.250 24.250 60 1.65 m/h 25 %
20:00:00 clear sky 18.850 18.850 18.850 78 1.26 m/h 0 %
23:00:00 clear sky 17.763 17.763 17.763 82 1.8 m/h 0 %
22-Sep-2019 (Sun)
02:00:00 clear sky 16.943 16.943 16.943 83 1.58 m/h 0 %
05:00:00 clear sky 16.591 16.591 16.591 79 1.23 m/h 0 %
08:00:00 clear sky 21.865 21.865 21.865 62 1.05 m/h 0 %
11:00:00 clear sky 26.400 26.400 26.400 47 2.16 m/h 0 %
14:00:00 light rain 25.750 25.750 25.750 53 2.03 m/h 13 %
17:00:00 broken clouds 24.850 24.850 24.850 58 1.84 m/h 0 %
20:00:00 few clouds 19.296 19.296 19.296 75 0.82 m/h 0 %
23:00:00 clear sky 18.550 18.550 18.550 77 1.5 m/h 0 %
23-Sep-2019 (Mon)
02:00:00 clear sky 17.550 17.550 17.550 80 0.67 m/h 0 %
05:00:00 few clouds 17.250 17.250 17.250 81 0.25 m/h 0 %
08:00:00 light rain 21.650 21.650 21.650 73 0.77 m/h 31 %
11:00:00 light rain 24.950 24.950 24.950 60 2.67 m/h 63 %
14:00:00 light rain 25.350 25.350 25.350 62 2.33 m/h 81 %

Famous Cities (61)